Time;durP1;ratioP1;P1;durP2;ratioP2;P2;SDS_P1;SDS_P2;PMS_P1;PMS_P2;Temp;Humidity;BMP_temperature;BMP_pressure;BME280_temperature;BME280_humidity;BME280_pressure;Samples;Min_cycle;Max_cycle;Signal;HPM_P1;HPM_P2
2023/10/15 00:00:16;;;;;;;3.92;1.80;;;8.00;99.90;;;;;;4977760;28;91106;-32
2023/10/15 00:02:43;;;;;;;1.73;0.90;;;8.10;99.90;;;;;;4977886;28;89461;-33
2023/10/15 00:05:18;;;;;;;4.57;1.58;;;8.10;99.90;;;;;;4977900;28;89678;-32
2023/10/15 00:07:44;;;;;;;9.05;1.75;;;8.10;99.90;;;;;;4978363;28;90592;-34
2023/10/15 00:10:11;;;;;;;3.80;0.70;;;8.00;99.90;;;;;;4977595;28;89763;-35
2023/10/15 00:12:43;;;;;;;4.68;0.80;;;8.00;99.90;;;;;;4981573;28;89419;-33
2023/10/15 00:15:19;;;;;;;3.72;0.88;;;8.00;99.90;;;;;;4980797;28;90258;-32
2023/10/15 00:17:56;;;;;;;2.53;1.50;;;8.00;99.90;;;;;;4980902;28;89757;-33
2023/10/15 00:20:31;;;;;;;3.83;0.93;;;7.90;99.90;;;;;;4982366;28;88540;-34
2023/10/15 00:22:57;;;;;;;4.75;2.05;;;7.90;99.90;;;;;;4980623;28;89100;-31
2023/10/15 00:25:23;;;;;;;1.05;1.05;;;7.90;99.90;;;;;;4981441;28;90609;-35
2023/10/15 00:27:52;;;;;;;1.98;1.05;;;7.90;99.90;;;;;;4981293;28;89571;-35
2023/10/15 00:30:19;;;;;;;2.95;1.95;;;7.90;99.90;;;;;;4963749;28;88514;-32
2023/10/15 00:32:49;;;;;;;1.13;0.70;;;7.80;99.90;;;;;;4980911;28;89886;-32
2023/10/15 00:35:21;;;;;;;2.60;2.40;;;7.80;99.90;;;;;;4981621;28;89413;-34
2023/10/15 00:37:56;;;;;;;1.95;0.50;;;7.80;99.90;;;;;;4980211;28;89652;-34
2023/10/15 00:40:26;;;;;;;1.92;1.05;;;7.80;99.90;;;;;;4979323;28;89623;-31
2023/10/15 00:42:53;;;;;;;2.08;0.75;;;7.70;99.90;;;;;;4980546;28;89405;-32
2023/10/15 00:45:20;;;;;;;0.98;0.70;;;7.80;99.90;;;;;;4964705;28;89862;-35
2023/10/15 00:48:07;;;;;;;2.60;1.10;;;7.70;99.90;;;;;;4980534;28;90375;-33
2023/10/15 00:50:38;;;;;;;1.27;0.50;;;7.60;99.90;;;;;;4980718;28;92601;-35
2023/10/15 00:53:10;;;;;;;2.10;0.80;;;7.60;99.90;;;;;;4981715;28;88384;-33
2023/10/15 00:55:38;;;;;;;1.13;1.10;;;7.60;99.90;;;;;;4980762;28;89952;-36
2023/10/15 00:58:08;;;;;;;2.72;1.35;;;7.50;99.90;;;;;;4981892;28;88928;-34
2023/10/15 01:00:48;;;;;;;0.73;0.57;;;7.50;99.90;;;;;;4980199;28;89336;-34
2023/10/15 01:03:16;;;;;;;1.85;1.25;;;7.50;99.90;;;;;;4980000;28;89446;-36
2023/10/15 01:05:53;;;;;;;4.22;0.88;;;7.50;99.90;;;;;;4981330;28;90141;-31
2023/10/15 01:08:31;;;;;;;1.25;1.15;;;7.50;99.90;;;;;;4980331;28;89506;-34
2023/10/15 01:11:19;;;;;;;1.65;0.80;;;7.40;99.90;;;;;;4980940;28;88983;-32
2023/10/15 01:13:46;;;;;;;2.15;0.50;;;7.40;99.90;;;;;;4963289;28;90318;-33
2023/10/15 01:16:17;;;;;;;5.32;0.70;;;7.40;99.90;;;;;;4961532;28;90191;-33
2023/10/15 01:18:45;;;;;;;2.03;0.90;;;7.40;99.90;;;;;;4973705;28;89863;-33
2023/10/15 01:21:14;;;;;;;0.52;0.52;;;7.40;99.90;;;;;;4973016;28;88928;-34
2023/10/15 01:26:23;;;;;;;;;;;7.40;99.90;;;;;;4981386;28;89231;-36
2023/10/15 01:28:51;;;;;;;0.73;0.73;;;7.40;99.90;;;;;;4981922;28;89020;-34
2023/10/15 01:31:17;;;;;;;0.98;0.82;;;7.40;99.90;;;;;;4981200;28;88217;-36
2023/10/15 01:33:46;;;;;;;1.90;1.55;;;7.40;99.90;;;;;;4980977;28;89113;-34
2023/10/15 01:36:27;;;;;;;4.88;1.55;;;7.40;99.90;;;;;;4979565;28;91925;-34
2023/10/15 01:38:58;;;;;;;1.30;1.02;;;7.40;99.90;;;;;;4980530;28;90631;-31
2023/10/15 01:41:27;;;;;;;1.10;1.00;;;7.40;99.90;;;;;;4974882;28;89956;-36
2023/10/15 01:43:56;;;;;;;1.48;1.25;;;7.40;99.90;;;;;;4975204;28;89248;-33
2023/10/15 01:49:09;;;;;;;5.07;0.70;;;7.30;99.90;;;;;;4980103;28;89880;-34
2023/10/15 01:51:40;;;;;;;1.17;1.02;;;7.30;99.90;;;;;;4979946;28;89004;-34
2023/10/15 01:54:16;;;;;;;0.82;0.50;;;7.30;99.90;;;;;;4979962;28;89464;-32
2023/10/15 01:56:44;;;;;;;2.17;1.48;;;7.30;99.90;;;;;;4980398;28;89948;-36
2023/10/15 01:59:11;;;;;;;0.50;0.50;;;7.30;99.90;;;;;;4980795;28;90086;-34
2023/10/15 02:01:49;;;;;;;3.47;0.70;;;7.30;99.90;;;;;;4980157;28;90250;-32
2023/10/15 02:04:27;;;;;;;3.20;0.75;;;7.30;99.90;;;;;;4962723;28;88513;-33
2023/10/15 02:06:53;;;;;;;3.05;0.93;;;7.30;99.90;;;;;;4979997;28;90730;-34
2023/10/15 02:09:22;;;;;;;1.77;1.17;;;7.30;99.90;;;;;;4979782;28;90278;-35
2023/10/15 02:11:48;;;;;;;3.30;0.98;;;7.30;99.90;;;;;;4979516;28;90066;-35
2023/10/15 02:14:23;;;;;;;6.22;1.02;;;7.30;99.90;;;;;;4972431;28;87621;-33
2023/10/15 02:16:49;;;;;;;1.95;1.10;;;7.30;99.90;;;;;;4959746;28;90327;-34
2023/10/15 02:19:28;;;;;;;2.97;1.20;;;7.20;99.90;;;;;;4960952;28;89955;-33
2023/10/15 02:21:54;;;;;;;6.65;3.13;;;7.20;99.90;;;;;;4960849;28;88340;-35
2023/10/15 02:24:20;;;;;;;3.28;1.05;;;7.10;99.90;;;;;;4960951;28;89265;-34
2023/10/15 02:26:45;;;;;;;2.70;1.02;;;7.10;99.90;;;;;;4965450;28;90239;-36
2023/10/15 02:31:58;;;;;;;4.40;1.20;;;7.10;99.90;;;;;;4960253;28;90394;-35
2023/10/15 02:34:27;;;;;;;0.85;0.80;;;7.00;99.90;;;;;;4959842;28;89743;-34
2023/10/15 02:36:54;;;;;;;6.00;0.82;;;7.10;99.90;;;;;;4960767;28;89065;-34
2023/10/15 02:39:22;;;;;;;2.05;1.13;;;7.00;99.90;;;;;;4963315;28;89481;-34
2023/10/15 02:41:48;;;;;;;3.33;1.00;;;7.00;99.90;;;;;;4970418;28;91141;-32
2023/10/15 02:44:13;;;;;;;3.15;1.50;;;7.00;99.90;;;;;;4973008;28;88833;-32
2023/10/15 02:46:47;;;;;;;2.25;0.82;;;7.00;99.90;;;;;;4959790;28;89750;-35
2023/10/15 02:49:15;;;;;;;1.20;0.82;;;6.90;99.90;;;;;;4971528;28;90412;-34
2023/10/15 02:51:45;;;;;;;;;;;6.90;99.90;;;;;;4959600;28;90158;-34
2023/10/15 02:56:56;;;;;;;1.50;1.25;;;6.90;99.90;;;;;;4969932;28;90533;-34
2023/10/15 02:59:29;;;;;;;2.38;0.80;;;6.90;99.90;;;;;;4965740;28;89753;-36
2023/10/15 03:01:56;;;;;;;1.38;0.73;;;6.90;99.90;;;;;;4974519;28;89123;-33
2023/10/15 03:04:37;;;;;;;6.07;1.20;;;6.90;99.90;;;;;;4977335;28;89015;-32
2023/10/15 03:10:07;;;;;;;8.13;2.67;;;7.00;99.90;;;;;;4912285;28;89584;-35
2023/10/15 03:12:40;;;;;;;5.78;0.77;;;6.90;99.90;;;;;;4917100;28;89291;-35
2023/10/15 03:15:07;;;;;;;0.80;0.80;;;7.00;99.90;;;;;;4932570;28;89717;-35
2023/10/15 03:17:40;;;;;;;1.52;1.10;;;7.00;99.90;;;;;;4967708;28;90618;-34
2023/10/15 03:22:45;;;;;;;5.35;0.95;;;7.00;99.90;;;;;;4969880;28;90465;-32
2023/10/15 03:25:13;;;;;;;3.60;0.80;;;6.90;99.90;;;;;;4976677;28;88962;-31
2023/10/15 03:27:48;;;;;;;3.80;1.20;;;6.90;99.90;;;;;;4977178;28;90363;-32
2023/10/15 03:30:15;;;;;;;0.60;0.60;;;6.90;99.90;;;;;;4976529;28;89658;-32
2023/10/15 03:32:44;;;;;;;1.63;1.45;;;6.90;99.90;;;;;;4975317;28;89761;-36
2023/10/15 03:35:27;;;;;;;0.60;0.60;;;6.80;99.90;;;;;;4959765;28;89806;-32
2023/10/15 03:37:59;;;;;;;0.60;0.60;;;6.80;99.90;;;;;;4958752;28;89974;-35
2023/10/15 03:40:32;;;;;;;1.23;0.65;;;6.80;99.90;;;;;;4977611;28;90993;-34
2023/10/15 03:43:06;;;;;;;3.30;1.30;;;6.70;99.90;;;;;;4976392;28;88604;-34
2023/10/15 03:45:50;;;;;;;2.45;1.73;;;6.70;99.90;;;;;;4976024;28;89540;-33
2023/10/15 03:48:30;;;;;;;0.80;0.50;;;6.70;99.90;;;;;;5088518;27;90727;-37
2023/10/15 03:50:56;;;;;;;;;;;6.70;99.90;;;;;;5078025;27;87984;-42
2023/10/15 03:53:34;;;;;;;1.60;0.60;;;6.70;99.90;;;;;;5080422;27;88353;-37
2023/10/15 03:56:01;;;;;;;2.40;0.70;;;6.60;99.90;;;;;;5065361;27;90459;-40
2023/10/15 03:58:28;;;;;;;4.30;1.08;;;6.60;99.90;;;;;;5077332;27;89176;-41
2023/10/15 04:01:16;;;;;;;3.72;1.08;;;6.60;99.90;;;;;;5078372;27;89003;-42
2023/10/15 04:03:43;;;;;;;0.57;0.57;;;6.60;99.90;;;;;;5077581;27;87526;-38
2023/10/15 04:06:10;;;;;;;0.70;0.70;;;6.60;99.90;;;;;;5078401;27;90305;-40
2023/10/15 04:08:39;;;;;;;2.17;0.80;;;6.60;99.90;;;;;;5076310;27;89539;-44
2023/10/15 04:11:08;;;;;;;1.05;0.82;;;6.50;99.90;;;;;;5070361;27;89849;-38
2023/10/15 04:13:35;;;;;;;1.10;1.02;;;6.50;99.90;;;;;;5077409;27;88106;-43
2023/10/15 04:16:01;;;;;;;2.83;0.70;;;6.50;99.90;;;;;;5077943;27;89988;-41
2023/10/15 04:18:26;;;;;;;1.33;0.80;;;6.50;99.90;;;;;;5077662;27;91413;-40
2023/10/15 04:20:53;;;;;;;1.88;0.85;;;6.50;99.90;;;;;;5077634;27;87499;-39
2023/10/15 04:23:37;;;;;;;3.05;1.33;;;6.50;99.90;;;;;;5077497;27;88628;-42
2023/10/15 04:26:11;;;;;;;2.15;1.17;;;6.50;99.90;;;;;;5077409;27;89993;-39
2023/10/15 04:28:38;;;;;;;3.80;1.15;;;6.50;99.90;;;;;;5077332;27;89175;-35
2023/10/15 04:31:21;;;;;;;2.10;0.80;;;6.50;99.90;;;;;;5077919;27;89097;-46
2023/10/15 04:33:50;;;;;;;1.33;0.88;;;6.40;99.90;;;;;;5077456;27;89288;-45
2023/10/15 04:36:16;;;;;;;1.63;0.93;;;6.40;99.90;;;;;;5077434;27;90148;-43
2023/10/15 04:38:42;;;;;;;0.50;0.47;;;6.50;99.90;;;;;;5076838;27;89685;-43
2023/10/15 04:41:10;;;;;;;1.17;0.52;;;6.50;99.90;;;;;;5076610;27;88383;-39
2023/10/15 04:43:46;;;;;;;1.70;1.38;;;6.50;99.90;;;;;;5077752;27;89628;-39
2023/10/15 04:46:19;;;;;;;0.82;0.82;;;6.50;99.90;;;;;;5076576;27;89911;-41
2023/10/15 04:48:46;;;;;;;0.60;0.60;;;6.50;99.90;;;;;;5077024;27;89028;-42
2023/10/15 04:51:12;;;;;;;1.42;1.33;;;6.50;99.90;;;;;;5078053;27;88819;-40
2023/10/15 04:53:44;;;;;;;5.00;1.33;;;6.50;99.90;;;;;;5076938;27;87886;-42
2023/10/15 04:56:10;;;;;;;1.15;0.80;;;6.50;99.90;;;;;;5077334;27;90102;-40
2023/10/15 04:58:36;;;;;;;0.85;0.57;;;6.50;99.90;;;;;;5069349;27;89718;-44
2023/10/15 05:01:04;;;;;;;0.70;0.70;;;6.50;99.90;;;;;;5063897;27;87838;-37
2023/10/15 05:03:31;;;;;;;5.50;1.30;;;6.50;99.90;;;;;;5063713;27;87684;-39
2023/10/15 05:06:15;;;;;;;1.00;1.00;;;6.50;99.90;;;;;;5062872;27;88355;-40
2023/10/15 05:08:40;;;;;;;1.85;1.20;;;6.50;99.90;;;;;;5062550;27;89635;-45
2023/10/15 05:11:08;;;;;;;2.47;1.02;;;6.50;99.90;;;;;;5063452;27;90062;-44
2023/10/15 05:13:34;;;;;;;0.90;0.90;;;6.40;99.90;;;;;;5062188;27;89099;-42
2023/10/15 05:15:59;;;;;;;1.27;0.80;;;6.40;99.90;;;;;;5063495;27;90034;-38
2023/10/15 05:18:29;;;;;;;2.70;1.75;;;6.40;99.90;;;;;;5062892;27;89776;-41
2023/10/15 05:20:55;;;;;;;3.35;1.38;;;6.40;99.90;;;;;;5063426;27;88588;-42
2023/10/15 05:23:22;;;;;;;2.28;0.90;;;6.40;99.90;;;;;;5062270;27;90393;-45
2023/10/15 05:25:52;;;;;;;4.22;1.33;;;6.40;99.90;;;;;;5063004;27;89854;-43
2023/10/15 05:28:18;;;;;;;1.67;1.00;;;6.40;99.90;;;;;;5058413;27;89500;-41
2023/10/15 05:30:44;;;;;;;0.65;0.65;;;6.40;99.90;;;;;;5055210;27;89621;-42
2023/10/15 05:33:10;;;;;;;1.88;1.02;;;6.40;99.90;;;;;;5061823;27;89040;-44
2023/10/15 05:35:37;;;;;;;1.15;0.75;;;6.40;99.90;;;;;;5062990;27;90014;-43
2023/10/15 05:38:04;;;;;;;0.73;0.63;;;6.40;99.90;;;;;;5039579;27;90094;-44
2023/10/15 05:40:29;;;;;;;0.55;0.55;;;6.40;99.90;;;;;;5055376;27;89908;-45
2023/10/15 05:42:55;;;;;;;1.35;0.70;;;6.40;99.90;;;;;;5063130;27;87860;-43
2023/10/15 05:45:21;;;;;;;5.07;1.35;;;6.40;99.90;;;;;;5062717;27;89371;-38
2023/10/15 05:47:46;;;;;;;5.38;1.30;;;6.40;99.90;;;;;;5078558;22;89208;-34
2023/10/15 05:50:16;;;;;;;1.75;1.13;;;6.40;99.90;;;;;;5042280;27;89721;-32
2023/10/15 05:52:42;;;;;;;1.98;0.77;;;6.40;99.90;;;;;;5022229;27;89299;-32
2023/10/15 05:55:08;;;;;;;3.25;1.25;;;6.40;99.90;;;;;;5022411;27;90420;-35
2023/10/15 05:57:34;;;;;;;0.50;0.40;;;6.40;99.90;;;;;;5022764;27;89840;-32
2023/10/15 06:00:17;;;;;;;0.77;0.70;;;6.40;99.90;;;;;;5022552;27;89193;-32
2023/10/15 06:02:46;;;;;;;1.50;0.70;;;6.40;99.90;;;;;;5032385;27;88761;-33
2023/10/15 06:05:13;;;;;;;0.93;0.60;;;6.50;99.90;;;;;;5029435;27;90695;-33
2023/10/15 06:07:40;;;;;;;2.25;0.60;;;6.50;99.90;;;;;;5030858;27;89614;-34
2023/10/15 06:10:08;;;;;;;2.40;1.58;;;6.50;99.90;;;;;;5022071;27;89350;-33
2023/10/15 06:12:34;;;;;;;1.75;0.85;;;6.40;99.90;;;;;;5021691;27;87795;-33
2023/10/15 06:15:00;;;;;;;1.05;0.57;;;6.50;99.90;;;;;;5020985;27;89418;-33
2023/10/15 06:17:25;;;;;;;1.67;0.80;;;6.50;99.90;;;;;;5021755;27;89578;-34
2023/10/15 06:19:51;;;;;;;1.90;1.08;;;6.50;99.90;;;;;;5021791;27;89965;-35
2023/10/15 06:22:17;;;;;;;1.40;1.08;;;6.50;99.90;;;;;;5022276;27;89233;-33
2023/10/15 06:24:46;;;;;;;1.77;1.48;;;6.50;99.90;;;;;;5021564;27;90099;-34
2023/10/15 06:27:13;;;;;;;3.97;0.65;;;6.50;99.90;;;;;;5030457;27;89510;-31
2023/10/15 06:29:38;;;;;;;1.13;0.70;;;6.50;99.90;;;;;;5019882;27;88939;-31
2023/10/15 06:32:04;;;;;;;0.55;0.55;;;6.50;99.90;;;;;;5030753;27;88420;-31
2023/10/15 06:34:30;;;;;;;1.05;0.82;;;6.50;99.90;;;;;;5025221;27;90225;-31
2023/10/15 06:36:55;;;;;;;0.80;0.80;;;6.50;99.90;;;;;;5002829;28;89853;-33
2023/10/15 06:39:22;;;;;;;1.15;0.73;;;6.60;99.90;;;;;;5037022;27;88716;-33
2023/10/15 06:41:47;;;;;;;1.50;0.90;;;6.60;99.90;;;;;;5040467;27;88793;-34
2023/10/15 06:44:14;;;;;;;0.50;0.50;;;6.60;99.90;;;;;;5040784;27;90142;-34
2023/10/15 06:46:39;;;;;;;0.82;0.82;;;6.70;99.90;;;;;;5012773;28;88549;-33
2023/10/15 06:49:07;;;;;;;2.55;1.02;;;6.70;99.90;;;;;;5037567;27;90056;-32
2023/10/15 06:51:34;;;;;;;0.50;0.40;;;6.80;99.90;;;;;;5041603;27;88871;-36
2023/10/15 06:54:00;;;;;;;1.30;0.70;;;6.80;99.90;;;;;;5040782;27;89893;-31
2023/10/15 06:56:27;;;;;;;4.15;1.30;;;6.80;99.90;;;;;;5041209;27;88326;-32
2023/10/15 06:58:52;;;;;;;0.85;0.45;;;6.80;99.90;;;;;;5041159;27;89203;-33
2023/10/15 07:01:18;;;;;;;1.02;0.50;;;6.90;99.90;;;;;;5041332;27;88964;-30
2023/10/15 07:03:44;;;;;;;0.35;0.35;;;6.90;99.90;;;;;;5023187;27;89460;-32
2023/10/15 07:06:09;;;;;;;0.60;0.40;;;6.90;99.90;;;;;;5032896;27;89102;-33
2023/10/15 07:08:35;;;;;;;0.50;0.45;;;6.90;99.90;;;;;;5035591;27;89190;-35
2023/10/15 07:11:01;;;;;;;0.68;0.60;;;6.90;99.90;;;;;;5030977;27;89718;-35
2023/10/15 07:13:26;;;;;;;0.65;0.50;;;6.90;99.90;;;;;;5034479;27;90183;-32
2023/10/15 07:15:53;;;;;;;0.65;0.47;;;7.00;99.90;;;;;;5039898;27;88521;-35
2023/10/15 07:18:18;;;;;;;12.35;1.30;;;7.00;99.90;;;;;;5041239;27;88097;-32
2023/10/15 07:20:44;;;;;;;0.82;0.82;;;7.00;99.90;;;;;;5040518;27;90236;-32
2023/10/15 07:23:10;;;;;;;0.88;0.60;;;7.00;99.90;;;;;;5040333;27;90345;-35
2023/10/15 07:25:35;;;;;;;12.10;1.58;;;7.00;99.90;;;;;;5040015;27;88926;-35
2023/10/15 07:28:02;;;;;;;0.30;0.30;;;7.00;99.90;;;;;;5037144;27;89533;-35
2023/10/15 07:30:28;;;;;;;0.40;0.40;;;7.00;99.90;;;;;;5027507;27;87865;-34
2023/10/15 07:32:57;;;;;;;0.40;0.40;;;7.10;99.90;;;;;;5033916;27;90212;-32
2023/10/15 07:35:27;;;;;;;1.65;1.23;;;7.10;99.90;;;;;;5034776;27;88951;-34
2023/10/15 07:37:53;;;;;;;0.98;0.75;;;7.10;99.90;;;;;;5027578;27;88461;-33
2023/10/15 07:40:26;;;;;;;0.73;0.52;;;7.10;99.90;;;;;;5023624;27;89055;-36
2023/10/15 07:42:54;;;;;;;1.50;0.65;;;7.20;99.90;;;;;;5027377;27;88266;-33
2023/10/15 07:45:26;;;;;;;7.25;2.88;;;7.20;99.90;;;;;;5020953;27;89239;-34
2023/10/15 07:47:53;;;;;;;0.75;0.47;;;7.20;99.90;;;;;;5027501;27;88350;-32
2023/10/15 07:50:18;;;;;;;0.98;0.90;;;7.40;99.90;;;;;;5022948;27;89904;-33
2023/10/15 07:52:47;;;;;;;1.27;0.82;;;7.40;99.90;;;;;;5027401;27;88615;-31
2023/10/15 07:55:13;;;;;;;;;;;7.40;99.90;;;;;;5029579;27;90390;-34
2023/10/15 07:57:39;;;;;;;0.98;0.50;;;7.40;99.90;;;;;;5036297;27;87615;-33
2023/10/15 08:00:06;;;;;;;3.13;0.88;;;7.30;99.90;;;;;;5022959;27;88496;-34
2023/10/15 08:02:34;;;;;;;0.47;0.47;;;7.30;99.90;;;;;;5025167;27;90644;-32
2023/10/15 08:05:00;;;;;;;0.43;0.43;;;7.30;99.90;;;;;;5023684;27;89738;-34
2023/10/15 08:07:28;;;;;;;3.60;0.63;;;7.10;99.90;;;;;;5024468;27;88843;-35
2023/10/15 08:09:54;;;;;;;1.65;0.55;;;7.00;99.90;;;;;;5022695;27;89250;-33
2023/10/15 08:12:20;;;;;;;4.10;1.08;;;6.90;99.90;;;;;;5029420;27;90627;-33
2023/10/15 08:14:46;;;;;;;0.85;0.52;;;6.90;99.90;;;;;;5036112;27;89718;-33
2023/10/15 08:17:14;;;;;;;0.30;0.30;;;7.00;99.90;;;;;;5036943;27;89495;-33
2023/10/15 08:19:40;;;;;;;0.83;0.57;;;7.00;99.90;;;;;;5036660;27;88394;-32
2023/10/15 08:22:05;;;;;;;0.65;0.65;;;7.00;99.90;;;;;;5037597;27;90499;-32
2023/10/15 08:24:31;;;;;;;0.85;0.55;;;7.10;99.90;;;;;;5036065;27;89929;-34
2023/10/15 08:26:57;;;;;;;0.30;0.30;;;7.20;99.90;;;;;;5023942;27;89539;-31
2023/10/15 08:29:22;;;;;;;3.00;0.40;;;7.30;99.90;;;;;;5036843;27;89870;-34
2023/10/15 08:31:48;;;;;;;2.00;1.17;;;7.50;99.90;;;;;;5036056;27;90782;-32
2023/10/15 08:34:14;;;;;;;2.05;0.90;;;7.60;99.90;;;;;;5037741;27;89668;-35
2023/10/15 08:36:39;;;;;;;0.90;0.50;;;7.70;99.90;;;;;;5040742;27;90087;-33
2023/10/15 08:39:08;;;;;;;0.40;0.32;;;7.80;99.90;;;;;;5039151;27;89171;-34
2023/10/15 08:41:38;;;;;;;1.45;0.60;;;7.80;99.90;;;;;;5033789;27;90443;-32
2023/10/15 08:44:07;;;;;;;0.50;0.50;;;7.90;99.90;;;;;;5036771;27;89341;-31
2023/10/15 08:46:36;;;;;;;0.95;0.60;;;7.90;99.90;;;;;;5019666;27;88496;-35
2023/10/15 08:49:05;;;;;;;2.05;0.43;;;7.90;99.90;;;;;;5002292;27;87626;-34
2023/10/15 08:51:34;;;;;;;0.40;0.40;;;8.10;99.90;;;;;;5020524;27;90177;-33
2023/10/15 08:54:02;;;;;;;0.90;0.88;;;8.10;99.90;;;;;;5019112;27;89364;-33
2023/10/15 08:56:30;;;;;;;;;;;8.20;99.90;;;;;;5021287;27;89185;-32
2023/10/15 08:58:57;;;;;;;2.50;0.60;;;8.20;99.90;;;;;;5039767;27;88835;-34
2023/10/15 09:01:23;;;;;;;0.90;0.47;;;8.30;99.90;;;;;;5039043;27;88849;-33
2023/10/15 09:03:52;;;;;;;0.85;0.50;;;8.40;99.90;;;;;;5020122;27;89567;-34
2023/10/15 09:06:19;;;;;;;1.25;0.60;;;8.50;99.90;;;;;;5033680;27;89499;-34
2023/10/15 09:08:45;;;;;;;0.40;0.40;;;8.50;99.90;;;;;;5031317;27;87903;-33
2023/10/15 09:11:11;;;;;;;3.55;0.55;;;8.40;99.90;;;;;;5020063;27;90403;-35
2023/10/15 09:13:37;;;;;;;1.48;0.55;;;8.40;99.90;;;;;;5018910;27;89613;-31
2023/10/15 09:16:08;;;;;;;1.27;1.02;;;8.40;99.90;;;;;;5028874;27;88525;-33
2023/10/15 09:18:35;;;;;;;1.85;0.70;;;8.40;99.90;;;;;;5019593;27;88346;-33
2023/10/15 09:21:04;;;;;;;1.92;0.88;;;8.60;99.90;;;;;;5019374;27;90146;-34
2023/10/15 09:23:35;;;;;;;1.88;0.73;;;8.70;99.90;;;;;;5027444;27;90023;-32
2023/10/15 09:26:01;;;;;;;0.93;0.50;;;8.80;99.90;;;;;;5022277;27;89674;-33
2023/10/15 09:28:27;;;;;;;1.45;0.90;;;8.70;99.90;;;;;;5034138;27;88367;-33
2023/10/15 09:31:11;;;;;;;1.38;0.80;;;8.70;99.90;;;;;;5022919;27;90626;-34
2023/10/15 09:33:38;;;;;;;1.52;0.75;;;8.80;99.90;;;;;;5021206;27;89876;-33
2023/10/15 09:36:05;;;;;;;1.25;0.90;;;8.90;99.90;;;;;;5023520;27;88467;-35
2023/10/15 09:38:32;;;;;;;1.10;1.00;;;8.90;99.90;;;;;;5020777;27;89078;-34
2023/10/15 09:41:02;;;;;;;1.23;0.93;;;8.80;99.90;;;;;;5022659;27;88681;-32
2023/10/15 09:43:28;;;;;;;1.90;0.90;;;8.80;99.90;;;;;;5029391;27;89753;-33
2023/10/15 09:45:54;;;;;;;2.30;0.75;;;8.80;99.90;;;;;;5033779;27;88565;-33
2023/10/15 09:48:27;;;;;;;1.45;1.35;;;8.80;99.90;;;;;;5033707;27;88228;-33
2023/10/15 09:50:56;;;;;;;2.35;0.85;;;8.80;99.90;;;;;;5020075;27;90488;-34
2023/10/15 09:53:24;;;;;;;1.05;0.55;;;8.90;99.90;;;;;;5032376;27;89855;-33
2023/10/15 09:55:51;;;;;;;1.85;0.50;;;9.00;99.90;;;;;;5028944;27;89576;-34
2023/10/15 09:58:17;;;;;;;8.85;1.65;;;9.00;99.90;;;;;;5024445;27;88763;-34
2023/10/15 10:01:08;;;;;;;1.10;0.85;;;9.10;99.90;;;;;;5004574;27;89896;-34
2023/10/15 10:03:59;;;;;;;3.13;0.85;;;9.30;99.90;;;;;;5035668;27;89693;-32
2023/10/15 10:06:39;;;;;;;1.00;0.80;;;9.40;99.90;;;;;;5032318;27;88561;-32
2023/10/15 10:09:36;;;;;;;0.68;0.52;;;9.40;99.90;;;;;;5027730;27;89279;-33
2023/10/15 10:12:17;;;;;;;1.13;0.70;;;9.40;99.90;;;;;;5023488;27;89908;-35
2023/10/15 10:15:11;;;;;;;2.50;1.02;;;9.50;99.90;;;;;;5026625;27;89785;-31
2023/10/15 10:17:38;;;;;;;3.90;1.45;;;9.50;99.90;;;;;;5022681;27;89675;-34
2023/10/15 10:20:11;;;;;;;2.30;0.60;;;9.50;99.90;;;;;;5025645;27;89826;-35
2023/10/15 10:22:38;;;;;;;1.38;0.85;;;9.60;99.90;;;;;;5028561;27;89734;-34
2023/10/15 10:25:05;;;;;;;0.82;0.82;;;9.60;99.90;;;;;;5028317;27;89679;-33
2023/10/15 10:27:41;;;;;;;1.00;0.75;;;9.70;99.90;;;;;;5026041;27;88465;-31
2023/10/15 10:30:28;;;;;;;5.28;1.30;;;9.70;99.90;;;;;;5033575;27;88479;-32
2023/10/15 10:32:58;;;;;;;3.70;1.27;;;9.80;99.90;;;;;;5030383;27;90180;-32
2023/10/15 10:35:26;;;;;;;2.50;1.15;;;10.00;99.90;;;;;;5037538;27;90198;-35
2023/10/15 10:38:12;;;;;;;3.13;1.52;;;10.10;99.90;;;;;;5038000;27;87484;-33
2023/10/15 10:41:04;;;;;;;1.10;1.00;;;10.20;99.90;;;;;;5038301;27;89299;-35
2023/10/15 10:43:30;;;;;;;3.50;0.90;;;10.20;99.90;;;;;;5032728;27;91495;-36
2023/10/15 10:46:02;;;;;;;2.97;1.48;;;10.30;99.90;;;;;;5037036;27;89335;-32
2023/10/15 10:48:29;;;;;;;2.63;1.00;;;10.40;99.90;;;;;;5037831;27;87595;-32
2023/10/15 10:51:15;;;;;;;1.17;0.95;;;10.40;99.90;;;;;;5037064;27;89020;-34
2023/10/15 10:54:16;;;;;;;7.00;1.92;;;10.50;99.90;;;;;;5038565;27;89342;-34
2023/10/15 10:56:44;;;;;;;3.60;2.58;;;10.60;99.90;;;;;;5037319;27;89551;-34
2023/10/15 10:59:13;;;;;;;7.47;1.85;;;10.60;99.90;;;;;;5031919;27;89744;-35
2023/10/15 11:01:43;;;;;;;9.93;1.65;;;10.60;99.90;;;;;;5038418;27;88435;-33
2023/10/15 11:04:11;;;;;;;2.55;0.60;;;10.50;99.90;;;;;;5035064;27;90880;-31
2023/10/15 11:06:39;;;;;;;0.80;0.65;;;10.40;99.90;;;;;;5037527;27;89258;-32
2023/10/15 11:09:22;;;;;;;0.75;0.75;;;10.40;99.90;;;;;;5038568;27;89111;-33
2023/10/15 11:11:52;;;;;;;1.08;0.95;;;10.30;99.90;;;;;;5022973;27;88028;-32
2023/10/15 11:14:27;;;;;;;0.93;0.75;;;10.40;99.90;;;;;;5037203;27;89375;-34
2023/10/15 11:16:57;;;;;;;3.15;0.88;;;10.50;99.90;;;;;;5037803;27;88774;-31
2023/10/15 11:19:24;;;;;;;5.20;0.90;;;10.60;99.90;;;;;;5038533;27;88286;-34
2023/10/15 11:21:52;;;;;;;0.85;0.80;;;10.70;99.90;;;;;;5036437;27;87660;-34
2023/10/15 11:24:20;;;;;;;1.70;1.33;;;10.70;99.90;;;;;;5038119;27;90263;-34
2023/10/15 11:26:46;;;;;;;1.42;1.20;;;10.70;99.90;;;;;;5017932;27;89697;-33
2023/10/15 11:29:13;;;;;;;1.00;1.00;;;10.80;99.90;;;;;;5034227;27;88845;-33
2023/10/15 11:31:43;;;;;;;3.22;1.52;;;10.90;99.90;;;;;;5036925;27;88961;-34
2023/10/15 11:34:14;;;;;;;1.05;0.57;;;11.00;99.90;;;;;;5037417;27;90479;-36
2023/10/15 11:36:43;;;;;;;3.63;1.60;;;11.00;99.90;;;;;;5015439;28;90606;-31
2023/10/15 11:39:17;;;;;;;1.95;0.80;;;11.00;99.90;;;;;;5029115;27;87861;-33
2023/10/15 11:41:49;;;;;;;2.20;1.02;;;11.10;99.90;;;;;;5038289;27;90208;-30
2023/10/15 11:44:15;;;;;;;2.20;1.67;;;11.10;99.90;;;;;;5036770;27;90313;-33
2023/10/15 11:46:41;;;;;;;3.30;0.60;;;11.10;99.90;;;;;;5038000;27;89428;-32
2023/10/15 11:49:09;;;;;;;0.82;0.70;;;11.30;99.90;;;;;;5040782;27;90225;-32
2023/10/15 11:51:35;;;;;;;2.70;1.02;;;11.40;99.90;;;;;;5036646;27;88422;-34
2023/10/15 11:54:04;;;;;;;7.35;1.13;;;11.60;99.90;;;;;;5037718;27;90165;-35
2023/10/15 11:56:31;;;;;;;1.33;0.80;;;11.70;99.90;;;;;;5037752;27;89224;-35
2023/10/15 11:59:00;;;;;;;2.60;1.77;;;11.70;99.90;;;;;;5036484;27;89386;-33
2023/10/15 12:01:26;;;;;;;3.08;1.13;;;11.80;99.90;;;;;;5037327;27;89367;-35
2023/10/15 12:03:56;;;;;;;3.47;1.20;;;11.90;99.90;;;;;;5036894;27;90321;-35
2023/10/15 12:06:22;;;;;;;3.53;0.85;;;12.10;99.90;;;;;;5036443;27;89752;-32
2023/10/15 12:08:48;;;;;;;3.85;2.13;;;12.20;99.90;;;;;;5038096;27;89884;-33
2023/10/15 12:11:15;;;;;;;2.30;0.90;;;12.20;99.90;;;;;;5035053;27;88032;-35
2023/10/15 12:13:44;;;;;;;2.50;1.13;;;12.20;99.90;;;;;;5039522;27;89828;-35
2023/10/15 12:16:10;;;;;;;0.77;0.70;;;12.20;99.90;;;;;;5040498;27;90136;-33
2023/10/15 12:18:36;;;;;;;2.05;0.73;;;12.10;99.90;;;;;;5041250;27;88859;-35
2023/10/15 12:21:02;;;;;;;7.68;1.30;;;12.20;99.90;;;;;;5039239;27;88578;-32
2023/10/15 12:23:28;;;;;;;4.05;0.93;;;12.20;99.90;;;;;;5040625;27;90332;-33
2023/10/15 12:25:54;;;;;;;4.18;0.90;;;12.20;99.90;;;;;;5025141;27;89319;-32
2023/10/15 12:28:19;;;;;;;3.33;1.25;;;12.20;99.90;;;;;;5035748;27;88539;-35
2023/10/15 12:30:45;;;;;;;6.03;1.45;;;12.30;99.90;;;;;;5031297;27;88984;-33
2023/10/15 12:33:15;;;;;;;1.98;0.77;;;12.30;99.90;;;;;;5022577;27;90573;-32
2023/10/15 12:35:43;;;;;;;11.05;1.80;;;12.40;99.90;;;;;;5019023;27;89445;-33
2023/10/15 12:38:16;;;;;;;1.85;1.08;;;12.40;99.90;;;;;;5020107;27;89817;-32
2023/10/15 12:40:45;;;;;;;4.22;1.08;;;12.30;99.90;;;;;;5033282;27;89830;-36
2023/10/15 12:43:17;;;;;;;3.95;1.70;;;12.10;99.90;;;;;;5036142;27;90277;-31
2023/10/15 12:45:44;;;;;;;2.55;1.45;;;12.00;99.90;;;;;;5026797;27;90229;-34
2023/10/15 12:48:10;;;;;;;1.17;0.68;;;11.70;99.90;;;;;;5039883;27;88658;-33
2023/10/15 12:50:36;;;;;;;3.40;1.27;;;11.40;99.90;;;;;;5039485;27;88129;-34
2023/10/15 12:53:02;;;;;;;1.65;0.63;;;11.20;99.90;;;;;;5040591;27;88908;-32
2023/10/15 12:55:28;;;;;;;1.42;0.93;;;11.10;99.90;;;;;;5039588;27;90051;-33
2023/10/15 12:57:54;;;;;;;1.67;0.60;;;11.00;99.90;;;;;;5039442;27;89362;-33
2023/10/15 13:00:26;;;;;;;2.00;0.98;;;10.90;99.90;;;;;;5038243;27;89870;-34
2023/10/15 13:02:53;;;;;;;3.33;1.70;;;10.80;99.90;;;;;;5036832;27;90356;-33
2023/10/15 13:05:21;;;;;;;3.20;0.70;;;10.80;99.90;;;;;;5032431;27;89991;-33
2023/10/15 13:07:48;;;;;;;2.38;1.38;;;10.80;99.90;;;;;;5032247;27;88495;-33
2023/10/15 13:10:14;;;;;;;0.80;0.80;;;10.80;99.90;;;;;;5023798;27;88436;-34
2023/10/15 13:12:40;;;;;;;2.72;1.60;;;10.90;99.90;;;;;;5039109;27;90227;-33
2023/10/15 13:15:18;;;;;;;1.23;0.98;;;10.90;99.90;;;;;;5038249;27;89349;-30
2023/10/15 13:17:47;;;;;;;2.42;1.20;;;10.80;99.90;;;;;;5039757;27;88005;-32
2023/10/15 13:20:14;;;;;;;3.22;1.27;;;10.90;99.90;;;;;;5020403;27;89645;-34
2023/10/15 13:22:42;;;;;;;0.98;0.63;;;11.10;99.90;;;;;;5020236;27;88994;-34